Time;durP1;ratioP1;P1;durP2;ratioP2;P2;SDS_P1;SDS_P2;PMS_P1;PMS_P2;Temp;Humidity;BMP_temperature;BMP_pressure;BME280_temperature;BME280_humidity;BME280_pressure;Samples;Min_cycle;Max_cycle;Signal;HPM_P1;HPM_P2
2021/01/22 00:01:36;;;;;;;10.38;2.70;;;;;;;12.28;75.47;100435.19;4930277;29;20032;-77
2021/01/22 00:04:03;;;;;;;18.05;4.20;;;;;;;12.43;75.56;100439.06;4929976;29;20063;-77
2021/01/22 00:06:28;;;;;;;15.43;3.65;;;;;;;12.29;75.75;100436.81;4929565;29;20157;-78
2021/01/22 00:08:57;;;;;;;11.95;3.05;;;;;;;12.32;75.63;100438.06;4945806;29;20028;-78
2021/01/22 00:11:23;;;;;;;10.23;2.85;;;;;;;12.30;75.92;100435.66;4945879;29;20031;-78
2021/01/22 00:13:48;;;;;;;12.05;2.55;;;;;;;12.30;75.76;100432.03;4930425;29;20034;-78
2021/01/22 00:16:17;;;;;;;11.98;2.85;;;;;;;12.20;76.27;100438.22;4929874;29;20062;-78
2021/01/22 00:18:42;;;;;;;11.82;2.95;;;;;;;12.22;76.69;100425.50;4929278;29;20047;-78
2021/01/22 00:21:08;;;;;;;10.40;2.53;;;;;;;12.25;75.98;100424.78;4945858;29;20394;-78
2021/01/22 00:23:37;;;;;;;17.25;2.67;;;;;;;12.33;75.55;100426.53;4929722;29;20035;-78
2021/01/22 00:26:06;;;;;;;13.65;3.35;;;;;;;12.27;76.39;100421.63;4929649;29;20039;-78
2021/01/22 00:28:33;;;;;;;10.82;2.50;;;;;;;12.28;76.31;100412.88;4945509;29;20027;-78
2021/01/22 00:30:59;;;;;;;12.45;2.83;;;;;;;12.37;76.39;100407.06;4945775;29;20032;-78
2021/01/22 00:33:27;;;;;;;16.80;2.53;;;;;;;12.33;76.97;100403.41;4929699;29;20031;-78
2021/01/22 00:35:55;;;;;;;11.80;3.78;;;;;;;12.27;77.26;100394.53;4945144;29;20119;-78
2021/01/22 00:38:22;;;;;;;18.45;2.80;;;;;;;12.31;76.93;100402.97;4929896;29;20066;-78
2021/01/22 00:40:47;;;;;;;13.60;3.10;;;;;;;12.39;77.47;100401.91;4929769;29;20039;-78
2021/01/22 00:43:13;;;;;;;12.82;2.95;;;;;;;12.32;77.94;100401.78;4945996;29;20035;-78
2021/01/22 00:45:38;;;;;;;14.25;3.08;;;;;;;12.39;78.04;100399.13;4929191;29;20479;-78
2021/01/22 00:48:06;;;;;;;21.02;2.78;;;;;;;12.33;78.36;100403.41;4945718;29;20067;-78
2021/01/22 00:50:31;;;;;;;11.68;2.45;;;;;;;12.34;78.53;100399.44;4945764;29;20067;-78
2021/01/22 00:52:57;;;;;;;13.60;3.25;;;;;;;12.35;78.58;100400.22;4945557;29;20467;-78
2021/01/22 00:55:23;;;;;;;12.68;2.58;;;;;;;12.33;78.99;100408.97;4945861;29;20019;-77
2021/01/22 00:57:48;;;;;;;7.10;2.33;;;;;;;12.29;78.75;100403.31;4945540;29;20024;-78
2021/01/22 01:00:15;;;;;;;10.60;2.70;;;;;;;12.15;79.95;100394.69;4928902;29;20395;-78
2021/01/22 01:02:43;;;;;;;14.15;2.70;;;;;;;12.23;79.36;100398.41;4944942;29;20032;-78
2021/01/22 01:05:12;;;;;;;22.45;4.15;;;;;;;12.15;80.19;100399.47;4928885;29;20151;-78
2021/01/22 01:07:40;;;;;;;20.40;3.40;;;;;;;12.24;80.13;100388.88;4929088;29;20027;-78
2021/01/22 01:10:07;;;;;;;14.43;3.03;;;;;;;12.26;80.25;100392.13;4929528;29;20032;-79
2021/01/22 01:12:33;;;;;;;11.80;3.05;;;;;;;12.21;80.57;100392.41;4946468;29;20063;-78
2021/01/22 01:14:59;;;;;;;21.23;4.47;;;;;;;12.20;80.79;100385.22;4946821;29;20462;-78
2021/01/22 01:17:24;;;;;;;13.30;3.13;;;;;;;12.25;80.33;100390.47;4947738;29;20051;-78
2021/01/22 01:19:50;;;;;;;20.92;3.65;;;;;;;12.14;80.19;100356.78;4946539;29;20042;-78
2021/01/22 01:22:15;;;;;;;11.05;3.65;;;;;;;12.33;80.40;100386.66;4928694;29;20059;-77
2021/01/22 01:24:41;;;;;;;10.82;2.72;;;;;;;12.37;79.96;100381.97;4930065;29;20028;-78
2021/01/22 01:27:06;;;;;;;11.77;3.13;;;;;;;12.31;80.08;100386.22;4929400;29;20051;-77
2021/01/22 01:29:34;;;;;;;13.93;2.53;;;;;;;12.27;80.55;100377.78;4928165;29;20034;-78
2021/01/22 01:32:00;;;;;;;20.08;3.47;;;;;;;12.27;80.57;100377.78;4928187;29;20035;-78
2021/01/22 01:34:27;;;;;;;8.77;2.30;;;;;;;12.28;80.06;100378.59;4927593;29;20035;-78
2021/01/22 01:36:53;;;;;;;14.98;2.97;;;;;;;12.33;79.99;100372.72;4928270;29;20039;-78
2021/01/22 01:39:19;;;;;;;15.95;3.00;;;;;;;12.40;79.71;100370.03;4928601;29;20034;-78
2021/01/22 01:41:44;;;;;;;24.05;4.85;;;;;;;12.32;79.60;100362.72;4929261;29;20032;-78
2021/01/22 01:44:10;;;;;;;22.38;3.47;;;;;;;12.45;79.92;100360.56;4929541;29;20075;-78
2021/01/22 01:46:35;;;;;;;13.02;3.05;;;;;;;12.36;80.26;100357.19;4929318;29;20039;-78
2021/01/22 01:49:01;;;;;;;15.38;3.35;;;;;;;12.34;80.63;100360.38;4929274;29;20055;-77
2021/01/22 01:51:30;;;;;;;28.23;3.53;;;;;;;12.32;80.69;100357.97;4929265;29;20039;-78
2021/01/22 01:53:56;;;;;;;12.77;3.40;;;;;;;12.30;81.29;100356.69;4928588;29;20031;-78
2021/01/22 01:56:24;;;;;;;24.48;4.00;;;;;;;12.28;80.77;100351.50;4928027;29;20032;-78
2021/01/22 01:58:50;;;;;;;26.02;5.25;;;;;;;12.26;81.42;100350.28;4929043;29;20352;-78
2021/01/22 02:01:20;;;;;;;15.23;4.40;;;;;;;12.15;80.91;100346.47;4943824;29;20042;-78
2021/01/22 02:03:46;;;;;;;15.93;4.47;;;;;;;12.11;81.80;100340.00;4943269;29;20036;-78
2021/01/22 02:06:12;;;;;;;18.13;4.90;;;;;;;12.11;81.89;100340.00;4927055;29;20455;-78
2021/01/22 02:08:38;;;;;;;16.70;3.65;;;;;;;12.11;81.18;100340.00;4942182;29;20032;-78
2021/01/22 02:11:06;;;;;;;17.48;3.35;;;;;;;12.07;81.69;100328.78;4943328;29;20036;-78
2021/01/22 02:13:33;;;;;;;17.50;3.40;;;;;;;12.01;81.79;100325.50;4942224;29;20056;-77
2021/01/22 02:16:02;;;;;;;15.93;4.78;;;;;;;11.98;81.88;100331.78;4943592;29;20032;-78
2021/01/22 02:18:29;;;;;;;14.90;3.05;;;;;;;11.96;81.44;100327.78;4944783;29;20055;-78
2021/01/22 02:21:17;;;;;;;17.83;5.72;;;;;;;11.90;81.84;100313.31;4947677;29;20031;-78
2021/01/22 02:23:47;;;;;;;26.80;4.68;;;;;;;11.85;80.84;100308.03;4945604;29;20043;-79
2021/01/22 02:26:21;;;;;;;18.70;3.95;;;;;;;11.80;80.53;100313.88;4946809;29;20027;-77
2021/01/22 02:28:54;;;;;;;18.23;4.35;;;;;;;11.74;79.04;100315.38;4930046;29;20394;-78
2021/01/22 02:31:21;;;;;;;12.15;3.92;;;;;;;11.74;77.63;100309.78;4950074;29;20051;-79
2021/01/22 02:33:48;;;;;;;20.05;4.53;;;;;;;11.74;77.42;100305.00;4935325;29;20102;-79
2021/01/22 02:36:19;;;;;;;14.75;4.88;;;;;;;11.68;77.23;100300.13;4953475;29;20046;-80
2021/01/22 02:38:48;;;;;;;13.68;4.32;;;;;;;11.62;77.77;100298.78;4952557;29;20039;-79
2021/01/22 02:41:19;;;;;;;17.25;5.40;;;;;;;11.77;78.26;100292.31;4944219;29;20103;-77
2021/01/22 02:43:55;;;;;;;27.60;4.20;;;;;;;11.96;79.21;100283.97;4946509;29;20035;-78
2021/01/22 02:46:22;;;;;;;21.15;3.92;;;;;;;12.04;79.02;100287.72;4931830;29;20126;-78
2021/01/22 02:48:55;;;;;;;23.70;5.28;;;;;;;12.12;79.76;100280.25;4931974;29;20095;-78
2021/01/22 02:51:20;;;;;;;19.70;3.90;;;;;;;12.11;80.20;100278.66;4931457;29;20031;-78
2021/01/22 02:53:46;;;;;;;29.17;8.68;;;;;;;12.25;80.35;100285.31;4931219;29;20070;-78
2021/01/22 02:56:22;;;;;;;19.67;5.30;;;;;;;12.20;80.97;100276.44;4947543;29;20028;-78
2021/01/22 02:59:01;;;;;;;26.15;5.53;;;;;;;12.06;81.42;100283.34;4947268;29;20043;-78
2021/01/22 03:01:29;;;;;;;20.40;5.00;;;;;;;12.07;81.63;100273.81;4932117;29;20031;-78
2021/01/22 03:04:09;;;;;;;21.52;4.13;;;;;;;12.07;81.48;100278.56;4947855;29;20068;-78
2021/01/22 03:06:44;;;;;;;24.67;4.15;;;;;;;11.99;81.55;100283.22;4946680;29;20154;-78
2021/01/22 03:09:20;;;;;;;16.73;3.13;;;;;;;12.05;81.61;100281.75;4948463;29;20059;-78
2021/01/22 03:11:51;;;;;;;23.45;3.47;;;;;;;12.10;80.73;100265.88;4947801;29;20063;-78
2021/01/22 03:14:37;;;;;;;16.38;4.68;;;;;;;12.12;80.29;100263.53;4931843;29;20067;-78
2021/01/22 03:17:03;;;;;;;15.00;3.00;;;;;;;12.03;80.81;100260.97;4946232;29;20047;-78
2021/01/22 03:19:31;;;;;;;18.35;4.13;;;;;;;12.06;80.28;100266.63;4931250;29;20038;-78
2021/01/22 03:21:57;;;;;;;15.93;3.25;;;;;;;12.08;80.03;100260.66;4930956;29;20056;-78
2021/01/22 03:24:25;;;;;;;15.05;3.28;;;;;;;12.07;80.03;100267.44;4930786;29;20043;-78
2021/01/22 03:26:50;;;;;;;20.35;3.80;;;;;;;12.18;79.57;100273.19;4930734;29;20031;-78
2021/01/22 03:29:16;;;;;;;22.52;3.85;;;;;;;12.10;79.42;100269.47;4948747;29;20123;-79
2021/01/22 03:31:44;;;;;;;14.68;3.20;;;;;;;12.16;79.37;100265.22;4934635;29;20035;-78
2021/01/22 03:34:10;;;;;;;20.83;3.03;;;;;;;12.21;78.84;100272.47;4951198;29;20028;-78
2021/01/22 03:36:38;;;;;;;20.15;3.25;;;;;;;12.24;78.78;100271.69;4951669;29;20075;-78
2021/01/22 03:39:07;;;;;;;11.05;2.42;;;;;;;12.26;78.76;100261.00;4935790;29;20096;-78
2021/01/22 03:41:35;;;;;;;14.27;2.72;;;;;;;12.21;78.45;100256.53;4935686;29;20024;-78
2021/01/22 03:44:03;;;;;;;17.23;3.28;;;;;;;12.32;78.53;100260.31;4936866;29;20408;-79
2021/01/22 03:46:28;;;;;;;18.70;3.08;;;;;;;12.31;78.40;100269.84;4936500;29;20027;-79
2021/01/22 03:48:54;;;;;;;20.10;3.08;;;;;;;12.31;78.71;100266.25;4936001;29;20131;-79
2021/01/22 03:51:19;;;;;;;14.38;3.47;;;;;;;12.28;78.31;100264.22;4935491;29;20028;-78
2021/01/22 03:53:48;;;;;;;14.40;2.90;;;;;;;12.30;78.34;100270.22;4935530;29;20039;-79
2021/01/22 03:56:14;;;;;;;10.50;3.28;;;;;;;12.35;78.07;100258.75;4936075;29;20535;-78
2021/01/22 03:58:42;;;;;;;23.02;4.40;;;;;;;12.35;78.59;100253.16;4935166;29;20058;-78
2021/01/22 04:01:08;;;;;;;17.23;2.90;;;;;;;12.38;78.21;100246.84;4935001;29;20039;-77
2021/01/22 04:03:36;;;;;;;15.43;4.35;;;;;;;12.38;78.56;100255.22;4951978;29;20390;-78
2021/01/22 04:06:02;;;;;;;12.27;3.42;;;;;;;12.32;78.50;100251.13;4951138;29;20026;-78
2021/01/22 04:08:30;;;;;;;10.32;3.47;;;;;;;12.41;77.88;100246.13;4950432;29;20063;-78
2021/01/22 04:10:58;;;;;;;13.30;4.05;;;;;;;12.35;77.75;100235.63;4931973;29;20039;-78
2021/01/22 04:13:24;;;;;;;20.55;3.33;;;;;;;12.40;77.75;100240.88;4931109;29;20188;-79
2021/01/22 04:15:52;;;;;;;29.75;4.40;;;;;;;12.32;77.87;100235.19;4947287;29;20049;-78
2021/01/22 04:18:20;;;;;;;22.50;3.83;;;;;;;12.34;77.92;100248.75;4930938;29;20079;-78
2021/01/22 04:20:46;;;;;;;21.58;3.65;;;;;;;12.35;77.49;100239.22;4930295;29;20035;-78
2021/01/22 04:23:11;;;;;;;14.43;3.45;;;;;;;12.38;77.38;100232.09;4930864;29;20122;-76
2021/01/22 04:25:39;;;;;;;22.90;4.28;;;;;;;12.35;77.54;100228.03;4930970;29;20095;-78
2021/01/22 04:28:07;;;;;;;19.60;3.80;;;;;;;12.37;77.23;100225.72;4930872;29;20071;-78
2021/01/22 04:30:33;;;;;;;23.50;4.00;;;;;;;12.36;77.43;100228.84;4931115;29;20119;-78
2021/01/22 04:32:58;;;;;;;16.63;4.47;;;;;;;12.35;76.90;100236.41;4946263;29;20135;-78
2021/01/22 04:35:24;;;;;;;12.60;3.67;;;;;;;12.39;77.53;100228.91;4930661;29;20036;-78
2021/01/22 04:37:50;;;;;;;14.20;3.60;;;;;;;12.35;77.31;100232.81;4930024;29;20035;-78
2021/01/22 04:40:22;;;;;;;13.48;2.95;;;;;;;12.32;77.71;100226.03;4931046;29;20036;-78
2021/01/22 04:42:48;;;;;;;14.88;3.35;;;;;;;12.38;77.14;100232.91;4946561;29;20036;-78
2021/01/22 04:45:19;;;;;;;17.52;4.35;;;;;;;12.35;77.22;100210.50;4930619;29;20110;-78
2021/01/22 04:47:44;;;;;;;23.45;3.42;;;;;;;12.38;76.80;100216.16;4946100;29;20042;-77
2021/01/22 04:50:16;;;;;;;21.50;4.18;;;;;;;12.33;76.64;100214.47;4930521;29;20051;-78
2021/01/22 04:52:45;;;;;;;21.23;3.10;;;;;;;12.41;76.50;100218.22;4946202;29;20038;-78
2021/01/22 04:55:13;;;;;;;16.77;3.38;;;;;;;12.40;76.10;100213.78;4946018;29;20049;-78
2021/01/22 04:57:41;;;;;;;18.27;3.42;;;;;;;12.42;76.57;100210.63;4945811;29;20027;-78
2021/01/22 05:00:11;;;;;;;18.95;2.65;;;;;;;12.46;77.00;100212.28;4946412;29;20568;-78
2021/01/22 05:02:37;;;;;;;25.17;3.65;;;;;;;12.39;77.36;100211.38;4930491;29;20103;-78
2021/01/22 05:05:07;;;;;;;17.48;3.38;;;;;;;12.40;77.15;100207.41;4929765;29;20028;-79
2021/01/22 05:07:33;;;;;;;8.55;2.97;;;;;;;12.40;77.12;100208.19;4926663;29;20066;-78
2021/01/22 05:10:02;;;;;;;14.57;4.13;;;;;;;12.32;78.01;100206.50;4930568;29;20036;-78
2021/01/22 05:12:38;;;;;;;20.55;3.58;;;;;;;12.18;79.36;100195.91;4929476;29;20036;-79
2021/01/22 05:15:30;;;;;;;18.73;3.58;;;;;;;12.15;80.31;100193.88;4929618;29;20028;-78
2021/01/22 05:18:03;;;;;;;17.58;3.85;;;;;;;12.08;80.03;100193.72;4925148;29;20051;-78
2021/01/22 05:20:38;;;;;;;16.30;3.80;;;;;;;11.90;81.58;100173.13;4929592;29;20027;-77
2021/01/22 05:23:06;;;;;;;16.48;3.70;;;;;;;11.93;82.56;100192.72;4929202;29;20063;-78
2021/01/22 05:25:34;;;;;;;21.67;3.88;;;;;;;11.78;82.30;100183.25;4945406;29;20483;-77
2021/01/22 05:28:00;;;;;;;16.15;3.03;;;;;;;11.82;82.59;100177.75;4945910;29;20027;-77
2021/01/22 05:30:30;;;;;;;14.50;4.00;;;;;;;11.74;82.61;100162.84;4931328;29;20118;-79
2021/01/22 05:33:15;;;;;;;11.10;2.38;;;;;;;11.85;82.01;100177.00;4948551;29;20028;-78
2021/01/22 05:35:41;;;;;;;21.50;3.78;;;;;;;11.88;82.65;100181.88;4949014;29;20106;-78
2021/01/22 05:38:07;;;;;;;22.35;3.92;;;;;;;11.90;81.65;100167.53;4932142;29;20058;-78
2021/01/22 05:40:32;;;;;;;11.23;3.63;;;;;;;11.94;81.20;100180.38;4929003;29;20036;-77
2021/01/22 05:43:01;;;;;;;15.05;3.47;;;;;;;11.88;82.40;100181.88;4927836;29;20115;-78
2021/01/22 05:45:42;;;;;;;18.23;3.22;;;;;;;11.82;82.37;100176.94;4944039;29;20103;-76
2021/01/22 05:48:22;;;;;;;18.52;4.30;;;;;;;11.77;84.19;100176.06;4927899;29;20031;-76
2021/01/22 05:50:59;;;;;;;14.60;3.50;;;;;;;11.71;84.69;100176.72;4943307;29;20375;-76
2021/01/22 05:53:25;;;;;;;22.30;4.03;;;;;;;11.69;85.36;100179.88;4928662;29;20040;-76
2021/01/22 05:56:24;;;;;;;16.67;4.25;;;;;;;11.70;85.91;100169.53;4944137;29;20123;-76
2021/01/22 05:58:52;;;;;;;16.85;3.08;;;;;;;11.63;86.56;100158.28;4910146;29;20036;-77
2021/01/22 06:01:20;;;;;;;25.58;4.00;;;;;;;11.76;86.69;100168.06;4928378;29;20039;-76
2021/01/22 06:03:50;;;;;;;27.05;5.03;;;;;;;11.75;86.46;100167.25;4943985;29;20047;-76
2021/01/22 06:06:17;;;;;;;26.10;4.15;;;;;;;11.86;85.73;100153.53;4927353;29;20032;-77
2021/01/22 06:09:02;;;;;;;16.63;3.72;;;;;;;11.92;85.17;100165.19;4927637;29;20087;-77
2021/01/22 06:11:30;;;;;;;19.85;3.60;;;;;;;11.95;85.97;100164.44;4943889;29;20037;-77
2021/01/22 06:13:58;;;;;;;24.17;6.72;;;;;;;11.84;86.52;100169.03;4941948;29;20040;-77
2021/01/22 06:16:27;;;;;;;18.65;4.82;;;;;;;11.83;87.18;100171.03;4926937;29;20024;-77
2021/01/22 06:19:02;;;;;;;15.77;3.90;;;;;;;11.90;86.42;100168.34;4944373;29;20131;-78
2021/01/22 06:21:58;;;;;;;20.95;4.38;;;;;;;11.91;86.37;100167.16;4927461;29;20102;-77
2021/01/22 06:24:28;;;;;;;15.77;3.42;;;;;;;11.95;86.26;100158.88;4940783;29;20036;-77
2021/01/22 06:26:56;;;;;;;23.85;3.88;;;;;;;12.00;85.65;100161.34;4940434;29;20027;-78
2021/01/22 06:29:22;;;;;;;18.67;4.72;;;;;;;12.04;85.84;100157.44;4937666;29;20040;-77
2021/01/22 06:31:50;;;;;;;26.52;5.32;;;;;;;12.07;85.58;100167.81;4941804;29;20059;-77
2021/01/22 06:34:16;;;;;;;13.00;4.30;;;;;;;12.04;85.66;100162.22;4943365;29;20039;-77
2021/01/22 06:36:50;;;;;;;24.80;5.95;;;;;;;12.09;85.49;100158.28;4942596;29;20040;-77
2021/01/22 06:39:19;;;;;;;14.82;4.50;;;;;;;12.06;85.11;100166.22;4925614;29;20032;-76
2021/01/22 06:41:46;;;;;;;20.33;4.60;;;;;;;12.07;84.47;100161.44;4943050;29;20028;-77
2021/01/22 06:44:12;;;;;;;19.90;4.10;;;;;;;12.07;84.45;100167.81;4942840;29;20032;-78
2021/01/22 06:46:37;;;;;;;20.60;4.03;;;;;;;12.10;84.75;100160.72;4912029;29;20498;-77
2021/01/22 06:49:07;;;;;;;19.75;4.03;;;;;;;12.10;84.54;100171.88;4943206;29;20031;-77
2021/01/22 06:51:35;;;;;;;18.10;4.72;;;;;;;12.11;83.87;100167.91;4943266;29;20059;-77
2021/01/22 06:54:17;;;;;;;16.45;3.85;;;;;;;12.10;83.78;100173.84;4943792;29;20043;-78
2021/01/22 06:56:45;;;;;;;16.60;3.78;;;;;;;12.15;83.73;100179.13;4944593;29;20044;-77
2021/01/22 06:59:28;;;;;;;25.90;4.53;;;;;;;12.17;82.67;100183.13;4941249;29;20036;-77
2021/01/22 07:01:58;;;;;;;16.52;3.90;;;;;;;12.11;82.64;100183.84;4942407;29;20568;-78
2021/01/22 07:04:33;;;;;;;14.27;3.65;;;;;;;12.18;82.71;100197.88;4930637;29;20036;-78
2021/01/22 07:07:02;;;;;;;19.20;5.55;;;;;;;12.18;82.31;100183.94;4945832;29;20099;-76
2021/01/22 07:09:48;;;;;;;19.70;3.78;;;;;;;12.13;83.10;100181.47;4930594;29;20139;-77
2021/01/22 07:12:32;;;;;;;21.45;4.18;;;;;;;12.20;82.36;100187.19;4948458;29;20126;-77
2021/01/22 07:15:01;;;;;;;14.82;4.50;;;;;;;12.19;82.77;100185.53;4947245;29;20091;-77
2021/01/22 07:17:33;;;;;;;15.45;4.28;;;;;;;12.27;82.39;100198.44;4930771;29;20051;-77
2021/01/22 07:20:08;;;;;;;17.98;4.88;;;;;;;12.30;82.78;100194.88;4947095;29;20032;-77
2021/01/22 07:22:35;;;;;;;22.50;4.15;;;;;;;12.25;83.93;100198.00;4932189;29;20460;-78
2021/01/22 07:25:04;;;;;;;14.10;3.83;;;;;;;12.34;83.62;100198.53;4933074;29;20027;-77
2021/01/22 07:27:42;;;;;;;18.88;4.13;;;;;;;12.33;83.06;100185.78;4946307;29;20039;-77
2021/01/22 07:30:15;;;;;;;24.73;4.82;;;;;;;12.37;82.33;100192.22;4947240;29;20114;-77
2021/01/22 07:32:42;;;;;;;13.77;3.85;;;;;;;12.41;81.82;100193.09;4946722;29;20063;-78
2021/01/22 07:35:09;;;;;;;22.30;4.53;;;;;;;12.43;81.07;100195.50;4930413;29;20024;-77
2021/01/22 07:37:39;;;;;;;18.60;3.70;;;;;;;12.43;81.07;100193.50;4939257;29;20043;-77
2021/01/22 07:40:10;;;;;;;15.15;3.75;;;;;;;12.41;80.76;100204.25;4924233;29;20035;-77
2021/01/22 07:42:36;;;;;;;19.85;5.43;;;;;;;12.40;80.78;100208.19;4941009;29;20036;-77
2021/01/22 07:45:09;;;;;;;27.80;5.78;;;;;;;12.45;81.41;100216.25;4928487;29;20494;-77
2021/01/22 07:47:37;;;;;;;20.63;4.43;;;;;;;12.40;81.03;100205.41;4925865;29;20032;-77
2021/01/22 07:50:11;;;;;;;17.80;4.47;;;;;;;12.46;81.35;100211.47;4940996;29;20038;-76
2021/01/22 07:52:41;;;;;;;15.75;5.20;;;;;;;12.41;81.95;100198.69;4940061;29;20111;-77
2021/01/22 07:55:15;;;;;;;26.30;5.78;;;;;;;12.42;82.51;100199.47;4941216;29;20032;-77
2021/01/22 07:57:44;;;;;;;22.10;4.10;;;;;;;12.51;82.55;100195.22;4923374;29;20031;-77
2021/01/22 08:00:15;;;;;;;17.75;5.60;;;;;;;12.51;82.07;100192.44;4924278;29;20119;-77
2021/01/22 08:02:57;;;;;;;28.63;6.53;;;;;;;12.53;81.00;100189.28;4940057;29;20517;-77
2021/01/22 08:05:35;;;;;;;21.38;6.28;;;;;;;12.56;80.62;100188.50;4925479;29;20039;-77
2021/01/22 08:08:22;;;;;;;17.30;3.88;;;;;;;12.66;80.48;100190.66;4938109;29;20023;-77
2021/01/22 08:10:48;;;;;;;21.30;4.70;;;;;;;12.63;80.07;100191.44;4941289;29;20027;-77
2021/01/22 08:13:15;;;;;;;22.42;5.40;;;;;;;12.68;79.52;100190.31;4924691;29;20489;-77
2021/01/22 08:15:43;;;;;;;19.23;4.78;;;;;;;12.69;79.11;100186.31;4910921;29;20127;-77
2021/01/22 08:18:08;;;;;;;21.30;4.47;;;;;;;12.71;79.22;100183.94;4941284;29;20039;-77
2021/01/22 08:20:34;;;;;;;18.77;5.85;;;;;;;12.73;79.39;100187.16;4942044;29;20043;-76
2021/01/22 08:23:03;;;;;;;26.83;5.78;;;;;;;12.73;80.06;100188.00;4941556;29;20063;-77
2021/01/22 08:25:36;;;;;;;14.52;4.45;;;;;;;12.75;80.06;100184.81;4926608;29;20057;-77
2021/01/22 08:28:07;;;;;;;22.55;4.00;;;;;;;12.67;79.67;100172.72;4928412;29;20425;-77
2021/01/22 08:30:34;;;;;;;14.20;4.45;;;;;;;12.76;79.21;100183.63;4931902;29;20028;-78
2021/01/22 08:33:00;;;;;;;20.75;4.20;;;;;;;12.89;78.80;100182.22;4949231;29;20468;-78
2021/01/22 08:35:28;;;;;;;17.30;5.93;;;;;;;12.90;79.16;100181.03;4946822;29;20043;-77
2021/01/22 08:37:57;;;;;;;19.58;5.53;;;;;;;12.99;78.20;100175.13;4943892;29;20039;-77
2021/01/22 08:40:39;;;;;;;17.60;4.32;;;;;;;13.02;78.25;100183.56;4941832;29;20020;-78
2021/01/22 08:43:15;;;;;;;18.70;3.85;;;;;;;12.96;77.76;100190.69;4941370;29;20067;-76
2021/01/22 08:45:42;;;;;;;20.02;4.57;;;;;;;12.92;77.67;100200.19;4941446;29;20036;-77
2021/01/22 08:48:08;;;;;;;25.27;4.57;;;;;;;12.94;77.66;100195.03;4943658;29;20031;-78
2021/01/22 08:50:34;;;;;;;15.43;3.75;;;;;;;12.96;77.11;100209.44;4944796;29;20042;-78
2021/01/22 08:53:13;;;;;;;22.60;4.05;;;;;;;12.98;77.13;100199.47;4924521;29;20031;-78
2021/01/22 08:55:42;;;;;;;19.08;3.78;;;;;;;13.03;77.61;100193.56;4938362;29;20031;-76
2021/01/22 08:58:11;;;;;;;25.60;4.25;;;;;;;13.00;77.00;100208.31;4922529;29;20031;-77
2021/01/22 09:00:41;;;;;;;21.55;5.32;;;;;;;13.04;77.12;100192.38;4924815;29;20027;-77
2021/01/22 09:03:23;;;;;;;20.13;4.13;;;;;;;13.22;76.31;100200.22;4923747;29;20097;-76
2021/01/22 09:05:49;;;;;;;22.02;4.43;;;;;;;13.11;76.76;100192.47;4937884;29;20031;-78
2021/01/22 09:08:16;;;;;;;18.60;4.45;;;;;;;13.22;76.51;100192.66;4937260;29;20039;-77
2021/01/22 09:10:49;;;;;;;23.73;5.82;;;;;;;13.32;76.45;100188.38;4922135;29;20031;-77
2021/01/22 09:13:26;;;;;;;20.95;5.50;;;;;;;13.45;76.12;100194.50;4921815;29;20490;-78
2021/01/22 09:16:06;;;;;;;22.38;5.70;;;;;;;13.54;75.30;100193.00;4938100;29;20065;-78
2021/01/22 09:18:32;;;;;;;19.50;4.35;;;;;;;13.63;75.39;100193.53;4921431;29;20059;-76
2021/01/22 09:21:02;;;;;;;20.30;4.85;;;;;;;13.75;74.58;100192.44;4939537;29;20027;-77
2021/01/22 09:23:29;;;;;;;16.20;5.03;;;;;;;13.78;74.72;100193.66;4937373;29;20036;-77
2021/01/22 09:25:57;;;;;;;19.70;4.55;;;;;;;13.81;73.93;100184.50;4921878;29;20122;-77
2021/01/22 09:28:25;;;;;;;22.35;5.55;;;;;;;13.84;74.21;100189.31;4937104;29;20035;-77
2021/01/22 09:30:50;;;;;;;25.02;4.63;;;;;;;13.75;74.35;100180.44;4922274;29;20364;-76
2021/01/22 09:33:16;;;;;;;17.83;4.13;;;;;;;13.92;74.68;100185.41;4937489;29;20046;-76
2021/01/22 09:35:45;;;;;;;20.20;4.13;;;;;;;13.92;74.95;100187.41;4937621;29;20042;-76
2021/01/22 09:38:14;;;;;;;22.10;5.63;;;;;;;13.86;74.43;100182.16;4922556;29;20054;-77
2021/01/22 09:40:39;;;;;;;14.98;5.55;;;;;;;13.70;75.33;100192.78;4921290;29;20035;-77
2021/01/22 09:43:06;;;;;;;10.82;4.32;;;;;;;13.72;75.91;100186.81;4937978;29;20054;-77
2021/01/22 09:45:32;;;;;;;27.58;4.80;;;;;;;13.67;76.12;100181.56;4921713;29;20071;-77
2021/01/22 09:48:02;;;;;;;22.25;5.20;;;;;;;13.74;76.18;100173.22;4921652;29;20032;-77
2021/01/22 09:50:28;;;;;;;22.77;5.03;;;;;;;13.56;76.69;100175.84;4922803;29;20035;-77
2021/01/22 09:52:54;;;;;;;13.30;4.15;;;;;;;13.61;76.84;100193.09;4936463;29;20535;-78
2021/01/22 09:55:22;;;;;;;12.65;4.80;;;;;;;13.56;76.77;100176.66;4921793;29;20064;-77
2021/01/22 09:57:48;;;;;;;20.20;4.88;;;;;;;13.55;77.12;100194.63;4921689;29;20070;-77
2021/01/22 10:00:18;;;;;;;23.13;4.43;;;;;;;13.57;76.90;100178.25;4921831;29;20031;-76
2021/01/22 10:02:44;;;;;;;14.18;3.78;;;;;;;13.56;76.97;100173.84;4920683;29;20122;-77
2021/01/22 10:05:13;;;;;;;19.40;4.93;;;;;;;13.43;76.79;100164.16;4935583;29;20036;-77
2021/01/22 10:07:39;;;;;;;19.75;5.10;;;;;;;13.35;77.63;100162.44;4920136;29;20036;-77
2021/01/22 10:10:05;;;;;;;21.95;5.25;;;;;;;13.33;77.97;100151.66;4919860;29;20375;-77
2021/01/22 10:12:37;;;;;;;20.67;4.03;;;;;;;13.26;78.53;100159.13;4935559;29;20051;-77
2021/01/22 10:15:04;;;;;;;18.55;5.10;;;;;;;13.20;79.02;100155.06;4920307;29;20036;-77
2021/01/22 10:17:30;;;;;;;18.05;6.47;;;;;;;13.21;78.82;100154.72;4918985;29;20139;-77
2021/01/22 10:19:58;;;;;;;28.83;5.13;;;;;;;13.26;78.90;100136.78;4919592;29;20475;-77
2021/01/22 10:22:24;;;;;;;11.90;4.10;;;;;;;13.38;78.22;100147.72;4919621;29;20100;-77
2021/01/22 10:24:50;;;;;;;18.65;4.75;;;;;;;13.33;78.50;100136.88;4935399;29;20458;-77
2021/01/22 10:27:19;;;;;;;16.30;5.70;;;;;;;13.36;79.04;100136.09;4919425;29;20110;-77
2021/01/22 10:29:47;;;;;;;23.30;5.40;;;;;;;13.51;78.50;100132.28;4919974;29;20118;-77
2021/01/22 10:32:13;;;;;;;23.45;5.15;;;;;;;13.65;78.33;100128.81;4935854;29;20054;-77
2021/01/22 10:34:42;;;;;;;22.67;5.25;;;;;;;13.76;77.89;100137.31;4919483;29;20562;-77
2021/01/22 10:37:10;;;;;;;17.13;4.75;;;;;;;13.74;78.09;100122.91;4921281;29;20032;-77
2021/01/22 10:39:35;;;;;;;21.15;4.30;;;;;;;13.77;78.01;100122.94;4922934;29;20028;-77
2021/01/22 10:42:04;;;;;;;16.58;4.30;;;;;;;13.77;78.57;100120.16;4922932;29;20032;-77
2021/01/22 10:44:32;;;;;;;14.23;4.80;;;;;;;13.83;78.22;100117.78;4922905;29;20106;-77
2021/01/22 10:47:02;;;;;;;27.00;5.55;;;;;;;13.96;78.29;100102.34;4923529;29;20039;-77
2021/01/22 10:49:31;;;;;;;19.63;4.47;;;;;;;13.96;78.20;100105.13;4923042;29;20054;-76
2021/01/22 10:51:59;;;;;;;18.65;4.95;;;;;;;13.77;78.37;100099.78;4923211;29;20102;-77
2021/01/22 10:54:28;;;;;;;12.40;4.03;;;;;;;13.89;78.15;100105.06;4938526;29;20028;-77
2021/01/22 10:56:54;;;;;;;25.70;5.05;;;;;;;13.77;79.05;100096.97;4938720;29;20036;-77
2021/01/22 10:59:20;;;;;;;22.50;4.93;;;;;;;13.67;79.58;100103.28;4923131;29;20030;-77
2021/01/22 11:01:48;;;;;;;13.73;4.18;;;;;;;13.51;79.43;100079.16;4923932;29;20127;-77
2021/01/22 11:04:17;;;;;;;16.27;4.65;;;;;;;13.49;79.92;100081.56;4924494;29;20032;-77
2021/01/22 11:06:42;;;;;;;15.68;3.63;;;;;;;13.23;80.30;100073.31;4925562;29;20498;-77
2021/01/22 11:09:11;;;;;;;15.43;4.40;;;;;;;12.71;80.33;100022.03;4940792;29;20062;-77
2021/01/22 11:11:39;;;;;;;21.50;6.47;;;;;;;13.06;81.01;100050.38;4925698;29;20036;-77
2021/01/22 11:14:04;;;;;;;17.73;4.15;;;;;;;13.26;81.56;100055.75;4941781;29;20086;-77
2021/01/22 11:16:33;;;;;;;25.40;6.25;;;;;;;13.34;82.25;100055.47;4923902;29;20043;-78
2021/01/22 11:19:01;;;;;;;23.95;6.03;;;;;;;13.59;82.43;100054.91;4932547;29;20048;-79
2021/01/22 11:21:26;;;;;;;24.23;5.68;;;;;;;13.80;81.61;100052.28;4933387;29;20041;-78
2021/01/22 11:23:52;;;;;;;27.75;7.38;;;;;;;14.03;81.20;100057.63;4929416;29;20032;-78
2021/01/22 11:26:20;;;;;;;16.33;4.43;;;;;;;14.05;80.57;100055.22;4927259;29;20054;-77